sensor_id;sensor_type;location;lat;lon;timestamp;pressure;altitude;pressure_sealevel;temperature;humidity
79127;BME280;68528;48.814;8.904;2023-06-24T00:27:05;97263.34;;;12.69;77.93
79127;BME280;68528;48.814;8.904;2023-06-24T00:29:31;97270.53;;;12.93;76.61
79127;BME280;68528;48.814;8.904;2023-06-24T00:31:57;97274.84;;;12.75;77.42
79127;BME280;68528;48.814;8.904;2023-06-24T00:34:22;97263.25;;;12.66;77.91
79127;BME280;68528;48.814;8.904;2023-06-24T00:36:48;97274.66;;;12.68;77.79
79127;BME280;68528;48.814;8.904;2023-06-24T00:39:14;97269.28;;;12.55;78.30
79127;BME280;68528;48.814;8.904;2023-06-24T00:41:39;97270.88;;;12.41;78.88
79127;BME280;68528;48.814;8.904;2023-06-24T00:44:05;97261.22;;;12.47;78.14
79127;BME280;68528;48.814;8.904;2023-06-24T00:46:31;97256.53;;;12.47;78.52
79127;BME280;68528;48.814;8.904;2023-06-24T00:48:59;97261.84;;;12.40;78.97
79127;BME280;68528;48.814;8.904;2023-06-24T00:51:48;97265.84;;;12.58;78.59
79127;BME280;68528;48.814;8.904;2023-06-24T00:54:16;97269.53;;;12.66;77.31
79127;BME280;68528;48.814;8.904;2023-06-24T00:56:42;97263.97;;;12.63;77.57
79127;BME280;68528;48.814;8.904;2023-06-24T00:59:10;97265.28;;;12.69;77.65
79127;BME280;68528;48.814;8.904;2023-06-24T01:01:37;97261.22;;;12.47;78.39
79127;BME280;68528;48.814;8.904;2023-06-24T01:04:04;97276.09;;;12.61;78.32
79127;BME280;68528;48.814;8.904;2023-06-24T01:06:54;97274.06;;;12.58;77.55
79127;BME280;68528;48.814;8.904;2023-06-24T01:09:23;97274.00;;;12.39;78.50
79127;BME280;68528;48.814;8.904;2023-06-24T01:11:49;97265.91;;;12.62;77.63
79127;BME280;68528;48.814;8.904;2023-06-24T01:14:15;97273.97;;;12.71;76.73
79127;BME280;68528;48.814;8.904;2023-06-24T01:19:52;97273.53;;;12.69;76.66
79127;BME280;68528;48.814;8.904;2023-06-24T01:33:33;97270.44;;;12.23;79.16
79127;BME280;68528;48.814;8.904;2023-06-24T01:36:01;97267.41;;;12.13;79.06
79127;BME280;68528;48.814;8.904;2023-06-24T01:38:48;97267.69;;;12.08;78.56
79127;BME280;68528;48.814;8.904;2023-06-24T01:41:22;97259.19;;;12.13;78.70
79127;BME280;68528;48.814;8.904;2023-06-24T01:43:55;97248.44;;;11.92;79.82
79127;BME280;68528;48.814;8.904;2023-06-24T01:46:22;97245.78;;;11.80;79.76
79127;BME280;68528;48.814;8.904;2023-06-24T01:48:53;97259.97;;;11.70;80.30
79127;BME280;68528;48.814;8.904;2023-06-24T01:51:20;97256.13;;;11.59;81.47
79127;BME280;68528;48.814;8.904;2023-06-24T02:04:08;97259.63;;;11.44;81.66
79127;BME280;68528;48.814;8.904;2023-06-24T02:06:35;97248.72;;;11.32;82.25
79127;BME280;68528;48.814;8.904;2023-06-24T02:09:01;97252.94;;;11.57;80.96
79127;BME280;68528;48.814;8.904;2023-06-24T02:11:30;97253.47;;;11.35;81.86
79127;BME280;68528;48.814;8.904;2023-06-24T02:13:58;97248.13;;;11.26;81.65
79127;BME280;68528;48.814;8.904;2023-06-24T02:16:25;97246.16;;;11.39;80.94
79127;BME280;68528;48.814;8.904;2023-06-24T02:18:53;97235.38;;;11.46;81.08
79127;BME280;68528;48.814;8.904;2023-06-24T02:21:23;97255.47;;;11.50;80.97
79127;BME280;68528;48.814;8.904;2023-06-24T02:23:49;97259.56;;;11.56;80.40
79127;BME280;68528;48.814;8.904;2023-06-24T02:26:17;97237.25;;;11.69;79.93
79127;BME280;68528;48.814;8.904;2023-06-24T02:28:44;97252.75;;;11.77;79.76
79127;BME280;68528;48.814;8.904;2023-06-24T02:31:12;97243.28;;;11.75;79.84
79127;BME280;68528;48.814;8.904;2023-06-24T02:33:38;97237.03;;;11.62;79.96
79127;BME280;68528;48.814;8.904;2023-06-24T02:36:04;97232.69;;;11.61;80.74
79127;BME280;68528;48.814;8.904;2023-06-24T02:38:41;97242.97;;;11.64;81.32
79127;BME280;68528;48.814;8.904;2023-06-24T02:41:29;97239.41;;;11.64;81.49
79127;BME280;68528;48.814;8.904;2023-06-24T02:43:54;97235.59;;;11.53;81.40
79127;BME280;68528;48.814;8.904;2023-06-24T02:46:21;97235.94;;;11.51;82.13
79127;BME280;68528;48.814;8.904;2023-06-24T02:48:48;97236.03;;;11.55;82.24
79127;BME280;68528;48.814;8.904;2023-06-24T02:51:14;97238.28;;;11.65;81.88
79127;BME280;68528;48.814;8.904;2023-06-24T02:53:41;97235.75;;;11.72;81.30
79127;BME280;68528;48.814;8.904;2023-06-24T02:56:08;97241.19;;;11.84;80.83
79127;BME280;68528;48.814;8.904;2023-06-24T02:58:36;97229.16;;;11.61;80.42
79127;BME280;68528;48.814;8.904;2023-06-24T03:01:02;97237.91;;;11.94;80.72
79127;BME280;68528;48.814;8.904;2023-06-24T03:03:28;97244.56;;;11.93;80.74
79127;BME280;68528;48.814;8.904;2023-06-24T03:05:54;97238.00;;;11.82;80.68
79127;BME280;68528;48.814;8.904;2023-06-24T03:08:23;97247.56;;;11.88;80.33
79127;BME280;68528;48.814;8.904;2023-06-24T03:10:50;97249.13;;;11.89;81.30
79127;BME280;68528;48.814;8.904;2023-06-24T03:13:16;97238.69;;;11.79;81.16
79127;BME280;68528;48.814;8.904;2023-06-24T03:15:41;97241.88;;;11.81;80.77
79127;BME280;68528;48.814;8.904;2023-06-24T03:27:53;97217.09;;;11.77;80.62
79127;BME280;68528;48.814;8.904;2023-06-24T03:30:40;97267.53;;;12.16;80.06
79127;BME280;68528;48.814;8.904;2023-06-24T03:33:06;97270.97;;;12.13;80.06
79127;BME280;68528;48.814;8.904;2023-06-24T03:35:32;97264.34;;;12.14;79.63
79127;BME280;68528;48.814;8.904;2023-06-24T03:37:58;97253.50;;;11.90;80.36
79127;BME280;68528;48.814;8.904;2023-06-24T03:40:23;97265.31;;;11.78;81.02
79127;BME280;68528;48.814;8.904;2023-06-24T03:42:49;97267.00;;;11.83;81.41
79127;BME280;68528;48.814;8.904;2023-06-24T03:45:15;97252.97;;;11.85;81.34
79127;BME280;68528;48.814;8.904;2023-06-24T03:52:46;97276.63;;;12.05;80.98
79127;BME280;68528;48.814;8.904;2023-06-24T03:55:15;97281.69;;;12.18;80.19
79127;BME280;68528;48.814;8.904;2023-06-24T03:57:46;97277.53;;;12.24;79.67
79127;BME280;68528;48.814;8.904;2023-06-24T04:00:12;97288.50;;;12.24;79.96
79127;BME280;68528;48.814;8.904;2023-06-24T04:02:41;97287.88;;;12.15;80.08
79127;BME280;68528;48.814;8.904;2023-06-24T04:05:07;97287.00;;;12.27;80.52
79127;BME280;68528;48.814;8.904;2023-06-24T04:07:33;97271.41;;;12.15;80.49
79127;BME280;68528;48.814;8.904;2023-06-24T04:10:21;97289.84;;;12.30;80.46
79127;BME280;68528;48.814;8.904;2023-06-24T04:12:50;97301.13;;;12.56;79.64
79127;BME280;68528;48.814;8.904;2023-06-24T04:15:15;97297.13;;;12.54;79.75
79127;BME280;68528;48.814;8.904;2023-06-24T04:17:41;97300.91;;;12.81;78.96
79127;BME280;68528;48.814;8.904;2023-06-24T04:20:06;97299.84;;;12.85;79.03
79127;BME280;68528;48.814;8.904;2023-06-24T04:22:34;97299.13;;;12.88;79.01
79127;BME280;68528;48.814;8.904;2023-06-24T04:25:00;97308.06;;;13.01;78.83
79127;BME280;68528;48.814;8.904;2023-06-24T04:27:25;97302.75;;;12.92;78.76
79127;BME280;68528;48.814;8.904;2023-06-24T05:07:00;97301.91;;;14.38;74.90
79127;BME280;68528;48.814;8.904;2023-06-24T05:09:26;97314.25;;;14.70;74.02
79127;BME280;68528;48.814;8.904;2023-06-24T06:00:55;97342.38;;;18.24;61.83
79127;BME280;68528;48.814;8.904;2023-06-24T06:03:23;97332.22;;;18.59;61.25
79127;BME280;68528;48.814;8.904;2023-06-24T06:05:48;97338.56;;;18.99;60.58
79127;BME280;68528;48.814;8.904;2023-06-24T06:08:14;97338.59;;;19.44;58.81
79127;BME280;68528;48.814;8.904;2023-06-24T06:11:04;97333.03;;;19.55;58.38
79127;BME280;68528;48.814;8.904;2023-06-24T06:13:31;97326.69;;;19.51;59.16
79127;BME280;68528;48.814;8.904;2023-06-24T06:15:58;97348.47;;;19.63;58.14
79127;BME280;68528;48.814;8.904;2023-06-24T06:18:34;97340.56;;;19.37;58.05
79127;BME280;68528;48.814;8.904;2023-06-24T06:21:02;97340.16;;;19.14;59.59
79127;BME280;68528;48.814;8.904;2023-06-24T06:23:31;97347.31;;;19.46;58.70
79127;BME280;68528;48.814;8.904;2023-06-24T06:25:56;97331.06;;;20.49;55.67
79127;BME280;68528;48.814;8.904;2023-06-24T06:28:22;97332.50;;;19.92;57.54
79127;BME280;68528;48.814;8.904;2023-06-24T06:30:47;97309.78;;;21.31;52.87
79127;BME280;68528;48.814;8.904;2023-06-24T06:33:13;97326.31;;;20.50;55.37
79127;BME280;68528;48.814;8.904;2023-06-24T06:36:06;97334.28;;;21.06;53.75
79127;BME280;68528;48.814;8.904;2023-06-24T06:38:38;97334.66;;;21.08;54.27
79127;BME280;68528;48.814;8.904;2023-06-24T06:41:04;97330.94;;;21.25;52.35
79127;BME280;68528;48.814;8.904;2023-06-24T06:43:31;97327.53;;;21.00;53.65
79127;BME280;68528;48.814;8.904;2023-06-24T06:46:00;97324.84;;;21.41;52.40
79127;BME280;68528;48.814;8.904;2023-06-24T06:48:25;97323.88;;;21.54;51.76
79127;BME280;68528;48.814;8.904;2023-06-24T06:50:51;97315.41;;;22.36;50.63
79127;BME280;68528;48.814;8.904;2023-06-24T06:53:18;97326.78;;;21.84;51.07
79127;BME280;68528;48.814;8.904;2023-06-24T07:24:57;97270.03;;;23.94;43.82
79127;BME280;68528;48.814;8.904;2023-06-24T07:27:42;97304.25;;;24.01;44.13
79127;BME280;68528;48.814;8.904;2023-06-24T07:30:45;97287.16;;;26.12;40.26
79127;BME280;68528;48.814;8.904;2023-06-24T07:33:29;97273.41;;;25.73;41.29
79127;BME280;68528;48.814;8.904;2023-06-24T07:36:32;97295.56;;;25.07;40.47
79127;BME280;68528;48.814;8.904;2023-06-24T07:42:10;97283.69;;;25.92;39.19
79127;BME280;68528;48.814;8.904;2023-06-24T07:45:04;97277.78;;;26.57;42.43
79127;BME280;68528;48.814;8.904;2023-06-24T07:47:30;97281.06;;;25.85;39.40
79127;BME280;68528;48.814;8.904;2023-06-24T07:52:45;97311.59;;;27.54;36.54
79127;BME280;68528;48.814;8.904;2023-06-24T07:55:14;97299.38;;;25.61;39.33
79127;BME280;68528;48.814;8.904;2023-06-24T07:57:39;97313.94;;;25.56;42.53
79127;BME280;68528;48.814;8.904;2023-06-24T08:00:06;97305.53;;;27.89;35.62
79127;BME280;68528;48.814;8.904;2023-06-24T08:02:34;97303.94;;;29.15;32.19
79127;BME280;68528;48.814;8.904;2023-06-24T08:05:00;97289.28;;;27.93;34.99
79127;BME280;68528;48.814;8.904;2023-06-24T08:07:25;97288.19;;;29.26;31.54
79127;BME280;68528;48.814;8.904;2023-06-24T08:16:18;97304.41;;;26.11;34.62
79127;BME280;68528;48.814;8.904;2023-06-24T08:18:46;97309.47;;;25.87;37.26
79127;BME280;68528;48.814;8.904;2023-06-24T09:26:00;97249.47;;;27.82;28.16
79127;BME280;68528;48.814;8.904;2023-06-24T09:28:30;97260.63;;;28.08;30.05
79127;BME280;68528;48.814;8.904;2023-06-24T09:31:07;97275.97;;;26.37;30.81
79127;BME280;68528;48.814;8.904;2023-06-24T09:33:33;97254.78;;;25.79;32.42
79127;BME280;68528;48.814;8.904;2023-06-24T09:36:01;97262.63;;;24.78;36.61
79127;BME280;68528;48.814;8.904;2023-06-24T09:38:37;97257.66;;;26.33;31.29
79127;BME280;68528;48.814;8.904;2023-06-24T09:41:04;97255.16;;;26.22;33.75
79127;BME280;68528;48.814;8.904;2023-06-24T09:43:33;97264.31;;;26.77;32.67
79127;BME280;68528;48.814;8.904;2023-06-24T09:46:03;97252.41;;;26.98;29.45
79127;BME280;68528;48.814;8.904;2023-06-24T09:48:34;97244.06;;;29.02;25.44
79127;BME280;68528;48.814;8.904;2023-06-24T09:51:02;97240.78;;;28.63;26.91
79127;BME280;68528;48.814;8.904;2023-06-24T09:53:33;97250.75;;;27.47;28.28
79127;BME280;68528;48.814;8.904;2023-06-24T09:56:21;97251.53;;;29.54;24.76
79127;BME280;68528;48.814;8.904;2023-06-24T09:59:15;97264.22;;;27.52;26.09
79127;BME280;68528;48.814;8.904;2023-06-24T10:01:41;97255.56;;;26.08;32.11
79127;BME280;68528;48.814;8.904;2023-06-24T10:04:09;97248.78;;;25.04;32.13
79127;BME280;68528;48.814;8.904;2023-06-24T10:06:35;97231.06;;;28.64;27.37
79127;BME280;68528;48.814;8.904;2023-06-24T10:09:06;97238.50;;;28.80;26.79
79127;BME280;68528;48.814;8.904;2023-06-24T10:11:31;97227.66;;;30.27;26.88
79127;BME280;68528;48.814;8.904;2023-06-24T10:13:57;97232.69;;;29.32;28.44
79127;BME280;68528;48.814;8.904;2023-06-24T10:16:32;97226.75;;;28.20;30.41
79127;BME280;68528;48.814;8.904;2023-06-24T10:19:05;97222.47;;;28.37;29.04
79127;BME280;68528;48.814;8.904;2023-06-24T10:24:34;97216.28;;;31.20;25.37
79127;BME280;68528;48.814;8.904;2023-06-24T10:27:05;97217.31;;;31.79;23.54
79127;BME280;68528;48.814;8.904;2023-06-24T10:29:35;97222.00;;;30.45;24.94
79127;BME280;68528;48.814;8.904;2023-06-24T10:32:05;97210.75;;;30.18;26.06
79127;BME280;68528;48.814;8.904;2023-06-24T10:34:55;97220.16;;;26.90;27.21
79127;BME280;68528;48.814;8.904;2023-06-24T10:41:18;97215.53;;;27.43;29.27
79127;BME280;68528;48.814;8.904;2023-06-24T10:54:08;97172.81;;;30.01;25.51
79127;BME280;68528;48.814;8.904;2023-06-24T10:56:33;97188.66;;;27.29;27.94
79127;BME280;68528;48.814;8.904;2023-06-24T10:59:12;97186.19;;;27.65;28.44
79127;BME280;68528;48.814;8.904;2023-06-24T11:17:22;97160.66;;;30.18;21.45
79127;BME280;68528;48.814;8.904;2023-06-24T11:19:49;97161.84;;;29.85;24.13
79127;BME280;68528;48.814;8.904;2023-06-24T11:22:15;97169.88;;;29.50;24.06
79127;BME280;68528;48.814;8.904;2023-06-24T11:24:43;97175.41;;;30.32;23.93
79127;BME280;68528;48.814;8.904;2023-06-24T11:27:10;97174.59;;;27.63;26.94
79127;BME280;68528;48.814;8.904;2023-06-24T11:29:53;97157.00;;;29.67;25.26
79127;BME280;68528;48.814;8.904;2023-06-24T11:32:20;97159.34;;;26.71;27.99
79127;BME280;68528;48.814;8.904;2023-06-24T11:34:47;97161.16;;;29.08;26.60
79127;BME280;68528;48.814;8.904;2023-06-24T11:37:17;97156.72;;;30.67;24.41
79127;BME280;68528;48.814;8.904;2023-06-24T11:39:52;97159.09;;;31.63;22.32
79127;BME280;68528;48.814;8.904;2023-06-24T11:42:44;97145.66;;;32.16;25.06
79127;BME280;68528;48.814;8.904;2023-06-24T11:45:11;97132.97;;;32.12;24.54
79127;BME280;68528;48.814;8.904;2023-06-24T11:51:23;97141.66;;;30.61;23.02
79127;BME280;68528;48.814;8.904;2023-06-24T11:53:49;97143.41;;;27.79;25.20
79127;BME280;68528;48.814;8.904;2023-06-24T13:24:21;97050.09;;;28.88;21.64
79127;BME280;68528;48.814;8.904;2023-06-24T13:26:47;97053.63;;;28.52;22.09
79127;BME280;68528;48.814;8.904;2023-06-24T13:29:12;97048.63;;;30.15;19.78
79127;BME280;68528;48.814;8.904;2023-06-24T13:31:42;97055.03;;;30.16;20.52
79127;BME280;68528;48.814;8.904;2023-06-24T13:34:08;97054.03;;;29.17;21.53
79127;BME280;68528;48.814;8.904;2023-06-24T13:37:01;97050.25;;;29.38;21.84
79127;BME280;68528;48.814;8.904;2023-06-24T13:39:26;97033.59;;;28.50;21.75
79127;BME280;68528;48.814;8.904;2023-06-24T13:42:01;97037.72;;;29.39;25.38
79127;BME280;68528;48.814;8.904;2023-06-24T13:44:27;97050.09;;;28.97;22.99
79127;BME280;68528;48.814;8.904;2023-06-24T13:46:52;97038.06;;;27.80;23.12
79127;BME280;68528;48.814;8.904;2023-06-24T13:49:18;97043.69;;;28.78;23.48
79127;BME280;68528;48.814;8.904;2023-06-24T13:51:44;97037.34;;;28.56;22.98
79127;BME280;68528;48.814;8.904;2023-06-24T13:54:09;97032.69;;;27.73;24.55
79127;BME280;68528;48.814;8.904;2023-06-24T13:56:42;97019.88;;;28.70;24.14
79127;BME280;68528;48.814;8.904;2023-06-24T13:59:08;97033.56;;;28.32;23.67
79127;BME280;68528;48.814;8.904;2023-06-24T14:01:36;97037.34;;;28.56;23.82
79127;BME280;68528;48.814;8.904;2023-06-24T14:04:02;97040.97;;;27.98;25.23
79127;BME280;68528;48.814;8.904;2023-06-24T14:06:28;97021.06;;;28.42;26.67
79127;BME280;68528;48.814;8.904;2023-06-24T14:08:53;97025.50;;;28.88;24.19
79127;BME280;68528;48.814;8.904;2023-06-24T14:11:19;97005.94;;;28.57;24.65
79127;BME280;68528;48.814;8.904;2023-06-24T14:13:46;97006.81;;;29.45;23.01
79127;BME280;68528;48.814;8.904;2023-06-24T14:16:13;97014.53;;;28.81;23.59
79127;BME280;68528;48.814;8.904;2023-06-24T14:18:45;97014.31;;;28.30;24.43
79127;BME280;68528;48.814;8.904;2023-06-24T14:21:12;97000.22;;;28.21;24.79
79127;BME280;68528;48.814;8.904;2023-06-24T14:38:08;96996.56;;;28.69;22.88
79127;BME280;68528;48.814;8.904;2023-06-24T14:40:34;96998.50;;;30.25;23.09
79127;BME280;68528;48.814;8.904;2023-06-24T14:43:02;96988.94;;;30.93;20.90
79127;BME280;68528;48.814;8.904;2023-06-24T14:45:31;96993.41;;;29.73;22.51
79127;BME280;68528;48.814;8.904;2023-06-24T14:47:56;96982.66;;;29.95;23.85
79127;BME280;68528;48.814;8.904;2023-06-24T14:50:22;96982.34;;;28.06;24.99
79127;BME280;68528;48.814;8.904;2023-06-24T14:53:02;96991.38;;;29.22;25.27
79127;BME280;68528;48.814;8.904;2023-06-24T14:55:32;96979.69;;;28.12;27.36
79127;BME280;68528;48.814;8.904;2023-06-24T14:57:58;96986.31;;;28.54;25.66
79127;BME280;68528;48.814;8.904;2023-06-24T15:00:28;96981.63;;;29.32;23.70
79127;BME280;68528;48.814;8.904;2023-06-24T15:02:53;96974.75;;;29.15;24.25
79127;BME280;68528;48.814;8.904;2023-06-24T15:05:18;96975.59;;;29.48;25.91
79127;BME280;68528;48.814;8.904;2023-06-24T15:07:44;96966.84;;;29.46;24.21
79127;BME280;68528;48.814;8.904;2023-06-24T15:10:16;96961.31;;;28.65;25.61
79127;BME280;68528;48.814;8.904;2023-06-24T15:12:48;96967.44;;;27.57;26.55
79127;BME280;68528;48.814;8.904;2023-06-24T15:15:14;96970.28;;;28.06;27.06
79127;BME280;68528;48.814;8.904;2023-06-24T15:17:41;96955.81;;;29.16;25.29
79127;BME280;68528;48.814;8.904;2023-06-24T15:20:10;96955.41;;;27.56;26.27
79127;BME280;68528;48.814;8.904;2023-06-24T15:22:35;96954.19;;;29.33;23.26
79127;BME280;68528;48.814;8.904;2023-06-24T15:25:05;96951.78;;;29.49;25.98
79127;BME280;68528;48.814;8.904;2023-06-24T15:27:56;96956.91;;;28.46;25.27
79127;BME280;68528;48.814;8.904;2023-06-24T15:31:12;96957.84;;;28.88;24.99
79127;BME280;68528;48.814;8.904;2023-06-24T15:33:39;96946.28;;;28.59;25.59
79127;BME280;68528;48.814;8.904;2023-06-24T15:36:05;96962.00;;;29.38;27.86
79127;BME280;68528;48.814;8.904;2023-06-24T15:38:31;96948.84;;;27.99;25.62
79127;BME280;68528;48.814;8.904;2023-06-24T15:40:56;96939.34;;;28.33;27.97
79127;BME280;68528;48.814;8.904;2023-06-24T15:43:22;96943.44;;;29.55;23.87
79127;BME280;68528;48.814;8.904;2023-06-24T15:45:49;96949.69;;;29.59;24.86
79127;BME280;68528;48.814;8.904;2023-06-24T15:48:22;96953.28;;;29.78;24.86
79127;BME280;68528;48.814;8.904;2023-06-24T15:50:48;96940.97;;;28.70;24.90
79127;BME280;68528;48.814;8.904;2023-06-24T15:53:40;96940.69;;;29.79;24.81
79127;BME280;68528;48.814;8.904;2023-06-24T15:56:08;96939.97;;;29.60;24.17
79127;BME280;68528;48.814;8.904;2023-06-24T15:58:33;96933.09;;;28.56;25.43
79127;BME280;68528;48.814;8.904;2023-06-24T16:00:59;96949.94;;;29.37;23.67
79127;BME280;68528;48.814;8.904;2023-06-24T16:03:27;96942.22;;;28.78;25.24
79127;BME280;68528;48.814;8.904;2023-06-24T16:06:12;96940.31;;;28.84;25.80
79127;BME280;68528;48.814;8.904;2023-06-24T16:09:04;96930.56;;;29.12;24.89
79127;BME280;68528;48.814;8.904;2023-06-24T16:11:29;96932.78;;;28.90;26.18
79127;BME280;68528;48.814;8.904;2023-06-24T16:13:55;96927.78;;;28.31;25.48
79127;BME280;68528;48.814;8.904;2023-06-24T16:16:20;96919.38;;;29.36;23.08
79127;BME280;68528;48.814;8.904;2023-06-24T16:18:46;96921.47;;;29.26;24.82
79127;BME280;68528;48.814;8.904;2023-06-24T16:21:12;96915.28;;;29.79;24.72
79127;BME280;68528;48.814;8.904;2023-06-24T16:23:37;96925.69;;;29.22;24.10
79127;BME280;68528;48.814;8.904;2023-06-24T17:18:33;96894.22;;;25.37;29.94
79127;BME280;68528;48.814;8.904;2023-06-24T17:24:02;96882.81;;;25.19;29.89
79127;BME280;68528;48.814;8.904;2023-06-24T17:26:30;96849.38;;;24.86;30.18
79127;BME280;68528;48.814;8.904;2023-06-24T17:44:12;96891.22;;;24.93;31.18
79127;BME280;68528;48.814;8.904;2023-06-24T17:46:37;96888.28;;;24.97;31.41
79127;BME280;68528;48.814;8.904;2023-06-24T17:49:03;96897.47;;;24.98;31.65
79127;BME280;68528;48.814;8.904;2023-06-24T17:51:29;96903.75;;;25.02;31.46
79127;BME280;68528;48.814;8.904;2023-06-24T17:53:54;96891.06;;;24.84;31.83
79127;BME280;68528;48.814;8.904;2023-06-24T17:56:36;96891.75;;;24.88;32.28
79127;BME280;68528;48.814;8.904;2023-06-24T17:59:31;96892.97;;;24.75;32.15
79127;BME280;68528;48.814;8.904;2023-06-24T18:01:58;96885.06;;;24.57;32.25
79127;BME280;68528;48.814;8.904;2023-06-24T18:04:29;96885.06;;;24.57;32.02
79127;BME280;68528;48.814;8.904;2023-06-24T18:06:55;96894.59;;;24.31;33.19
79127;BME280;68528;48.814;8.904;2023-06-24T18:09:22;96894.19;;;24.16;32.94
79127;BME280;68528;48.814;8.904;2023-06-24T18:11:48;96895.34;;;24.19;34.39
79127;BME280;68528;48.814;8.904;2023-06-24T18:14:14;96899.09;;;24.29;35.31
79127;BME280;68528;48.814;8.904;2023-06-24T18:16:41;96878.72;;;24.12;33.71
79127;BME280;68528;48.814;8.904;2023-06-24T18:19:18;96841.22;;;23.65;34.48
79127;BME280;68528;48.814;8.904;2023-06-24T18:22:00;96871.84;;;24.00;34.44
79127;BME280;68528;48.814;8.904;2023-06-24T18:24:42;96871.09;;;23.84;33.98
79127;BME280;68528;48.814;8.904;2023-06-24T18:31:02;96868.16;;;23.59;34.94
79127;BME280;68528;48.814;8.904;2023-06-24T19:21:40;96880.19;;;21.66;42.85
79127;BME280;68528;48.814;8.904;2023-06-24T19:24:06;96873.81;;;21.43;42.98
79127;BME280;68528;48.814;8.904;2023-06-24T19:26:33;96862.56;;;21.27;44.05
79127;BME280;68528;48.814;8.904;2023-06-24T19:29:22;96871.56;;;21.34;46.05
79127;BME280;68528;48.814;8.904;2023-06-24T19:31:48;96862.72;;;21.16;45.28
79127;BME280;68528;48.814;8.904;2023-06-24T19:34:18;96857.72;;;21.04;46.12
79127;BME280;68528;48.814;8.904;2023-06-24T19:36:43;96877.31;;;20.97;44.65
79127;BME280;68528;48.814;8.904;2023-06-24T19:39:09;96871.09;;;20.86;46.87
79127;BME280;68528;48.814;8.904;2023-06-24T19:41:34;96866.84;;;20.78;44.35
79127;BME280;68528;48.814;8.904;2023-06-24T19:44:06;96871.34;;;20.68;45.54
79127;BME280;68528;48.814;8.904;2023-06-24T19:46:33;96880.84;;;20.71;46.71
79127;BME280;68528;48.814;8.904;2023-06-24T19:49:03;96875.50;;;20.57;47.49
79127;BME280;68528;48.814;8.904;2023-06-24T19:51:52;96883.56;;;20.48;47.66
79127;BME280;68528;48.814;8.904;2023-06-24T19:54:19;96884.44;;;20.41;49.18
79127;BME280;68528;48.814;8.904;2023-06-24T19:56:46;96885.00;;;20.25;49.43
79127;BME280;68528;48.814;8.904;2023-06-24T19:59:11;96889.53;;;20.12;50.77
79127;BME280;68528;48.814;8.904;2023-06-24T20:01:37;96881.56;;;20.14;49.47
79127;BME280;68528;48.814;8.904;2023-06-24T20:04:03;96886.22;;;20.24;45.83
79127;BME280;68528;48.814;8.904;2023-06-24T20:06:30;96888.56;;;20.29;44.93
79127;BME280;68528;48.814;8.904;2023-06-24T20:08:56;96892.91;;;20.30;44.94
79127;BME280;68528;48.814;8.904;2023-06-24T20:11:44;96887.72;;;20.32;46.56
79127;BME280;68528;48.814;8.904;2023-06-24T20:14:32;96894.56;;;20.24;45.38
79127;BME280;68528;48.814;8.904;2023-06-24T20:17:00;96885.22;;;20.04;46.84
79127;BME280;68528;48.814;8.904;2023-06-24T20:19:45;96881.81;;;19.90;48.25
79127;BME280;68528;48.814;8.904;2023-06-24T20:22:45;96889.97;;;19.70;47.55
79127;BME280;68528;48.814;8.904;2023-06-24T20:25:32;96881.25;;;19.68;47.79
79127;BME280;68528;48.814;8.904;2023-06-24T20:28:29;96883.66;;;19.66;47.76
79127;BME280;68528;48.814;8.904;2023-06-24T20:33:58;96878.75;;;19.77;46.90
79127;BME280;68528;48.814;8.904;2023-06-24T20:36:23;96882.00;;;19.72;46.90
79127;BME280;68528;48.814;8.904;2023-06-24T20:38:51;96863.69;;;19.78;46.78
79127;BME280;68528;48.814;8.904;2023-06-24T20:44:32;96877.69;;;19.64;46.39
79127;BME280;68528;48.814;8.904;2023-06-24T20:46:59;96863.78;;;19.68;46.28
79127;BME280;68528;48.814;8.904;2023-06-24T20:49:48;96873.25;;;19.74;46.13
79127;BME280;68528;48.814;8.904;2023-06-24T20:52:37;96881.59;;;19.74;45.35
79127;BME280;68528;48.814;8.904;2023-06-24T20:55:51;96822.81;;;19.38;45.74
79127;BME280;68528;48.814;8.904;2023-06-24T20:58:24;96885.97;;;19.71;45.97
79127;BME280;68528;48.814;8.904;2023-06-24T21:00:51;96848.88;;;19.47;46.47
79127;BME280;68528;48.814;8.904;2023-06-24T21:03:17;96871.06;;;19.54;46.66
79127;BME280;68528;48.814;8.904;2023-06-24T21:05:44;96877.88;;;19.46;46.85
79127;BME280;68528;48.814;8.904;2023-06-24T21:08:09;96861.75;;;19.27;46.89
79127;BME280;68528;48.814;8.904;2023-06-24T21:10:35;96870.97;;;19.17;47.43
79127;BME280;68528;48.814;8.904;2023-06-24T21:13:00;96865.88;;;19.05;48.62
79127;BME280;68528;48.814;8.904;2023-06-24T21:15:25;96870.75;;;18.91;48.75
79127;BME280;68528;48.814;8.904;2023-06-24T21:17:54;96877.91;;;18.85;49.50
79127;BME280;68528;48.814;8.904;2023-06-24T21:20:20;96880.34;;;18.75;49.61
79127;BME280;68528;48.814;8.904;2023-06-24T21:22:45;96876.88;;;18.61;49.99
79127;BME280;68528;48.814;8.904;2023-06-24T21:25:11;96875.75;;;18.51;50.71
79127;BME280;68528;48.814;8.904;2023-06-24T21:27:37;96880.53;;;18.33;52.01
79127;BME280;68528;48.814;8.904;2023-06-24T21:30:03;96874.19;;;18.36;52.49
79127;BME280;68528;48.814;8.904;2023-06-24T21:32:29;96877.78;;;18.33;52.92
79127;BME280;68528;48.814;8.904;2023-06-24T21:34:54;96871.84;;;18.31;52.92
79127;BME280;68528;48.814;8.904;2023-06-24T21:37:20;96871.88;;;18.24;53.09
79127;BME280;68528;48.814;8.904;2023-06-24T21:40:08;96880.97;;;18.25;54.19
79127;BME280;68528;48.814;8.904;2023-06-24T21:42:34;96878.22;;;18.21;54.43
79127;BME280;68528;48.814;8.904;2023-06-24T21:45:01;96859.28;;;18.02;54.06
79127;BME280;68528;48.814;8.904;2023-06-24T21:47:29;96871.19;;;17.92;55.28
79127;BME280;68528;48.814;8.904;2023-06-24T21:49:59;96850.69;;;17.72;54.98
79127;BME280;68528;48.814;8.904;2023-06-24T21:52:24;96825.00;;;17.54;55.60
79127;BME280;68528;48.814;8.904;2023-06-24T21:57:46;96873.63;;;17.48;56.62
79127;BME280;68528;48.814;8.904;2023-06-24T22:00:13;96869.72;;;17.52;56.46
79127;BME280;68528;48.814;8.904;2023-06-24T22:02:46;96853.06;;;17.35;57.01
79127;BME280;68528;48.814;8.904;2023-06-24T22:05:16;96866.91;;;17.35;57.27